Terminal Aerodrome Forecast
Issued by NWS

Home | Current Version | Previous Version | Text Only | Print | Product List | Glossary Off
Versions: 1 2 3 4 5 6 7 8 9 10 11 12 13 14 15 16 17 18

000
FTUS43 KMPX 220500
TAFAXN
TAF
KAXN 220540Z 2206/2306 24008KT P6SM BKN060
     FM220800 26005KT 6SM BR SCT030 BKN080
     FM221000 30009G16KT P6SM SCT080
     FM221300 32017G24KT P6SM SCT040 SCT250
     FM230000 35009KT P6SM FEW250=

USA.gov is the U.S. government's official web portal to all federal, state and local government web resources and services.